sensor_id;sensor_type;location;lat;lon;timestamp;P1;durP1;ratioP1;P2;durP2;ratioP2
2061;SDS011;11070;51.336;12.340;2023-11-25T00:00:18;3.78;;;3.17;;
2061;SDS011;11070;51.336;12.340;2023-11-25T00:02:50;3.67;;;3.35;;
2061;SDS011;11070;51.336;12.340;2023-11-25T00:05:16;3.35;;;3.05;;
2061;SDS011;11070;51.336;12.340;2023-11-25T00:07:42;2.92;;;2.72;;
2061;SDS011;11070;51.336;12.340;2023-11-25T00:10:08;4.00;;;3.00;;
2061;SDS011;11070;51.336;12.340;2023-11-25T00:12:34;2.80;;;2.53;;
2061;SDS011;11070;51.336;12.340;2023-11-25T00:15:00;3.45;;;2.80;;
2061;SDS011;11070;51.336;12.340;2023-11-25T00:17:26;2.80;;;2.10;;
2061;SDS011;11070;51.336;12.340;2023-11-25T00:19:56;5.97;;;2.85;;
2061;SDS011;11070;51.336;12.340;2023-11-25T00:22:22;5.20;;;2.40;;
2061;SDS011;11070;51.336;12.340;2023-11-25T00:24:48;2.63;;;2.20;;
2061;SDS011;11070;51.336;12.340;2023-11-25T00:27:14;5.03;;;2.75;;
2061;SDS011;11070;51.336;12.340;2023-11-25T00:29:40;2.70;;;2.50;;
2061;SDS011;11070;51.336;12.340;2023-11-25T00:32:06;6.22;;;3.95;;
2061;SDS011;11070;51.336;12.340;2023-11-25T00:34:32;4.13;;;2.58;;
2061;SDS011;11070;51.336;12.340;2023-11-25T00:36:58;5.77;;;3.67;;
2061;SDS011;11070;51.336;12.340;2023-11-25T00:39:24;7.10;;;3.97;;
2061;SDS011;11070;51.336;12.340;2023-11-25T00:41:52;7.43;;;4.63;;
2061;SDS011;11070;51.336;12.340;2023-11-25T00:44:18;7.65;;;3.80;;
2061;SDS011;11070;51.336;12.340;2023-11-25T00:46:44;7.17;;;3.60;;
2061;SDS011;11070;51.336;12.340;2023-11-25T00:49:09;5.43;;;4.20;;
2061;SDS011;11070;51.336;12.340;2023-11-25T00:51:36;6.78;;;3.85;;
2061;SDS011;11070;51.336;12.340;2023-11-25T00:54:03;6.43;;;3.90;;
2061;SDS011;11070;51.336;12.340;2023-11-25T00:56:29;9.27;;;4.32;;
2061;SDS011;11070;51.336;12.340;2023-11-25T00:58:55;4.53;;;4.03;;
2061;SDS011;11070;51.336;12.340;2023-11-25T01:01:21;5.15;;;3.90;;
2061;SDS011;11070;51.336;12.340;2023-11-25T01:03:47;7.80;;;4.57;;
2061;SDS011;11070;51.336;12.340;2023-11-25T01:06:13;6.70;;;4.70;;
2061;SDS011;11070;51.336;12.340;2023-11-25T01:08:38;6.77;;;4.23;;
2061;SDS011;11070;51.336;12.340;2023-11-25T01:11:04;6.33;;;4.00;;
2061;SDS011;11070;51.336;12.340;2023-11-25T01:13:30;8.38;;;4.78;;
2061;SDS011;11070;51.336;12.340;2023-11-25T01:15:56;6.90;;;4.20;;
2061;SDS011;11070;51.336;12.340;2023-11-25T01:18:22;5.80;;;3.60;;
2061;SDS011;11070;51.336;12.340;2023-11-25T01:20:48;6.80;;;4.30;;
2061;SDS011;11070;51.336;12.340;2023-11-25T01:23:14;6.37;;;4.30;;
2061;SDS011;11070;51.336;12.340;2023-11-25T01:25:42;7.25;;;4.40;;
2061;SDS011;11070;51.336;12.340;2023-11-25T01:28:08;5.47;;;3.97;;
2061;SDS011;11070;51.336;12.340;2023-11-25T01:30:35;5.20;;;3.50;;
2061;SDS011;11070;51.336;12.340;2023-11-25T01:33:04;5.90;;;4.05;;
2061;SDS011;11070;51.336;12.340;2023-11-25T01:35:31;5.40;;;4.50;;
2061;SDS011;11070;51.336;12.340;2023-11-25T01:37:57;6.75;;;4.82;;
2061;SDS011;11070;51.336;12.340;2023-11-25T01:40:23;4.60;;;4.10;;
2061;SDS011;11070;51.336;12.340;2023-11-25T01:42:49;5.40;;;3.70;;
2061;SDS011;11070;51.336;12.340;2023-11-25T01:45:15;5.10;;;4.00;;
2061;SDS011;11070;51.336;12.340;2023-11-25T01:47:42;7.60;;;4.45;;
2061;SDS011;11070;51.336;12.340;2023-11-25T01:50:08;9.00;;;4.40;;
2061;SDS011;11070;51.336;12.340;2023-11-25T01:52:35;7.10;;;4.10;;
2061;SDS011;11070;51.336;12.340;2023-11-25T01:55:03;7.25;;;5.10;;
2061;SDS011;11070;51.336;12.340;2023-11-25T01:57:30;6.55;;;4.50;;
2061;SDS011;11070;51.336;12.340;2023-11-25T01:59:56;9.65;;;4.97;;
2061;SDS011;11070;51.336;12.340;2023-11-25T02:02:24;6.65;;;4.50;;
2061;SDS011;11070;51.336;12.340;2023-11-25T02:04:53;9.50;;;5.05;;
2061;SDS011;11070;51.336;12.340;2023-11-25T02:07:20;5.35;;;4.70;;
2061;SDS011;11070;51.336;12.340;2023-11-25T02:09:46;7.03;;;5.05;;
2061;SDS011;11070;51.336;12.340;2023-11-25T02:12:12;7.80;;;4.70;;
2061;SDS011;11070;51.336;12.340;2023-11-25T02:14:40;5.40;;;4.50;;
2061;SDS011;11070;51.336;12.340;2023-11-25T02:17:06;7.30;;;4.90;;
2061;SDS011;11070;51.336;12.340;2023-11-25T02:19:32;7.10;;;4.70;;
2061;SDS011;11070;51.336;12.340;2023-11-25T02:21:58;5.00;;;4.40;;
2061;SDS011;11070;51.336;12.340;2023-11-25T02:24:24;12.20;;;5.30;;
2061;SDS011;11070;51.336;12.340;2023-11-25T02:26:58;5.57;;;4.38;;
2061;SDS011;11070;51.336;12.340;2023-11-25T02:29:25;6.63;;;4.30;;
2061;SDS011;11070;51.336;12.340;2023-11-25T02:31:51;8.40;;;4.47;;
2061;SDS011;11070;51.336;12.340;2023-11-25T02:34:17;8.47;;;5.20;;
2061;SDS011;11070;51.336;12.340;2023-11-25T02:36:43;5.50;;;3.90;;
2061;SDS011;11070;51.336;12.340;2023-11-25T02:39:09;4.97;;;3.92;;
2061;SDS011;11070;51.336;12.340;2023-11-25T02:41:35;3.63;;;3.30;;
2061;SDS011;11070;51.336;12.340;2023-11-25T02:44:01;6.18;;;3.83;;
2061;SDS011;11070;51.336;12.340;2023-11-25T02:46:27;8.10;;;3.90;;
2061;SDS011;11070;51.336;12.340;2023-11-25T02:48:53;6.93;;;2.90;;
2061;SDS011;11070;51.336;12.340;2023-11-25T02:51:19;10.48;;;3.10;;
2061;SDS011;11070;51.336;12.340;2023-11-25T02:53:45;5.83;;;3.20;;
2061;SDS011;11070;51.336;12.340;2023-11-25T02:56:10;7.95;;;3.67;;
2061;SDS011;11070;51.336;12.340;2023-11-25T02:58:36;9.03;;;3.13;;
2061;SDS011;11070;51.336;12.340;2023-11-25T03:01:02;3.30;;;3.00;;
2061;SDS011;11070;51.336;12.340;2023-11-25T03:03:34;12.43;;;3.70;;
2061;SDS011;11070;51.336;12.340;2023-11-25T03:06:07;5.97;;;3.40;;
2061;SDS011;11070;51.336;12.340;2023-11-25T03:08:33;6.00;;;3.43;;
2061;SDS011;11070;51.336;12.340;2023-11-25T03:10:59;5.30;;;3.42;;
2061;SDS011;11070;51.336;12.340;2023-11-25T03:13:25;3.03;;;2.73;;
2061;SDS011;11070;51.336;12.340;2023-11-25T03:15:51;5.57;;;3.33;;
2061;SDS011;11070;51.336;12.340;2023-11-25T03:18:19;7.07;;;3.00;;
2061;SDS011;11070;51.336;12.340;2023-11-25T03:20:45;5.57;;;3.05;;
2061;SDS011;11070;51.336;12.340;2023-11-25T03:23:11;6.13;;;3.20;;
2061;SDS011;11070;51.336;12.340;2023-11-25T03:25:38;5.43;;;3.40;;
2061;SDS011;11070;51.336;12.340;2023-11-25T03:28:04;6.45;;;3.10;;
2061;SDS011;11070;51.336;12.340;2023-11-25T03:30:32;3.40;;;3.10;;
2061;SDS011;11070;51.336;12.340;2023-11-25T03:32:58;6.67;;;3.37;;
2061;SDS011;11070;51.336;12.340;2023-11-25T03:35:24;6.50;;;3.00;;
2061;SDS011;11070;51.336;12.340;2023-11-25T03:37:50;4.90;;;3.07;;
2061;SDS011;11070;51.336;12.340;2023-11-25T03:40:15;6.63;;;3.47;;
2061;SDS011;11070;51.336;12.340;2023-11-25T03:42:42;7.53;;;3.23;;
2061;SDS011;11070;51.336;12.340;2023-11-25T03:45:09;6.78;;;2.90;;
2061;SDS011;11070;51.336;12.340;2023-11-25T03:47:37;3.30;;;2.30;;
2061;SDS011;11070;51.336;12.340;2023-11-25T03:50:07;3.78;;;2.88;;
2061;SDS011;11070;51.336;12.340;2023-11-25T03:52:33;4.03;;;2.65;;
2061;SDS011;11070;51.336;12.340;2023-11-25T03:55:00;12.25;;;3.72;;
2061;SDS011;11070;51.336;12.340;2023-11-25T03:57:28;6.53;;;3.10;;
2061;SDS011;11070;51.336;12.340;2023-11-25T03:59:53;7.90;;;4.03;;
2061;SDS011;11070;51.336;12.340;2023-11-25T04:02:19;3.13;;;2.67;;
2061;SDS011;11070;51.336;12.340;2023-11-25T04:04:45;4.10;;;2.90;;
2061;SDS011;11070;51.336;12.340;2023-11-25T04:07:11;4.13;;;3.20;;
2061;SDS011;11070;51.336;12.340;2023-11-25T04:09:37;4.35;;;3.00;;
2061;SDS011;11070;51.336;12.340;2023-11-25T04:12:02;4.60;;;3.00;;
2061;SDS011;11070;51.336;12.340;2023-11-25T04:14:29;5.20;;;2.70;;
2061;SDS011;11070;51.336;12.340;2023-11-25T04:16:54;6.63;;;2.90;;
2061;SDS011;11070;51.336;12.340;2023-11-25T04:19:21;7.45;;;3.03;;
2061;SDS011;11070;51.336;12.340;2023-11-25T04:21:47;7.85;;;2.60;;
2061;SDS011;11070;51.336;12.340;2023-11-25T04:24:15;3.95;;;2.60;;
2061;SDS011;11070;51.336;12.340;2023-11-25T04:26:42;5.55;;;2.85;;
2061;SDS011;11070;51.336;12.340;2023-11-25T04:29:08;5.37;;;2.30;;
2061;SDS011;11070;51.336;12.340;2023-11-25T04:31:36;8.57;;;3.20;;
2061;SDS011;11070;51.336;12.340;2023-11-25T04:34:02;6.07;;;2.43;;
2061;SDS011;11070;51.336;12.340;2023-11-25T04:36:30;6.00;;;2.53;;
2061;SDS011;11070;51.336;12.340;2023-11-25T04:38:56;4.38;;;2.72;;
2061;SDS011;11070;51.336;12.340;2023-11-25T04:41:24;3.50;;;2.30;;
2061;SDS011;11070;51.336;12.340;2023-11-25T04:43:50;3.90;;;2.50;;
2061;SDS011;11070;51.336;12.340;2023-11-25T04:46:16;5.00;;;2.70;;
2061;SDS011;11070;51.336;12.340;2023-11-25T04:48:41;5.43;;;2.67;;
2061;SDS011;11070;51.336;12.340;2023-11-25T04:51:07;4.07;;;2.57;;
2061;SDS011;11070;51.336;12.340;2023-11-25T04:53:33;9.70;;;2.30;;
2061;SDS011;11070;51.336;12.340;2023-11-25T04:55:58;3.63;;;2.17;;
2061;SDS011;11070;51.336;12.340;2023-11-25T04:58:25;4.38;;;2.28;;
2061;SDS011;11070;51.336;12.340;2023-11-25T05:00:50;2.47;;;2.00;;
2061;SDS011;11070;51.336;12.340;2023-11-25T05:03:16;8.23;;;2.40;;
2061;SDS011;11070;51.336;12.340;2023-11-25T05:05:42;3.43;;;1.70;;
2061;SDS011;11070;51.336;12.340;2023-11-25T05:08:07;5.10;;;2.27;;
2061;SDS011;11070;51.336;12.340;2023-11-25T05:10:33;3.27;;;2.00;;
2061;SDS011;11070;51.336;12.340;2023-11-25T05:12:59;4.67;;;1.83;;
2061;SDS011;11070;51.336;12.340;2023-11-25T05:15:25;6.90;;;1.97;;
2061;SDS011;11070;51.336;12.340;2023-11-25T05:17:51;3.70;;;2.10;;
2061;SDS011;11070;51.336;12.340;2023-11-25T05:20:18;3.65;;;2.35;;
2061;SDS011;11070;51.336;12.340;2023-11-25T05:22:44;3.22;;;2.08;;
2061;SDS011;11070;51.336;12.340;2023-11-25T05:25:10;4.30;;;2.33;;
2061;SDS011;11070;51.336;12.340;2023-11-25T05:27:38;3.50;;;1.80;;
2061;SDS011;11070;51.336;12.340;2023-11-25T05:30:04;3.10;;;2.50;;
2061;SDS011;11070;51.336;12.340;2023-11-25T05:32:30;7.60;;;2.50;;
2061;SDS011;11070;51.336;12.340;2023-11-25T05:34:56;2.73;;;2.30;;
2061;SDS011;11070;51.336;12.340;2023-11-25T05:37:22;7.53;;;2.30;;
2061;SDS011;11070;51.336;12.340;2023-11-25T05:39:48;7.13;;;2.60;;
2061;SDS011;11070;51.336;12.340;2023-11-25T05:42:15;3.33;;;2.17;;
2061;SDS011;11070;51.336;12.340;2023-11-25T05:44:48;6.40;;;2.70;;
2061;SDS011;11070;51.336;12.340;2023-11-25T05:47:14;6.70;;;3.30;;
2061;SDS011;11070;51.336;12.340;2023-11-25T05:49:40;3.77;;;2.93;;
2061;SDS011;11070;51.336;12.340;2023-11-25T05:52:08;3.28;;;2.30;;
2061;SDS011;11070;51.336;12.340;2023-11-25T05:54:34;7.07;;;2.90;;
2061;SDS011;11070;51.336;12.340;2023-11-25T05:56:59;7.03;;;3.60;;
2061;SDS011;11070;51.336;12.340;2023-11-25T05:59:25;5.30;;;2.50;;
2061;SDS011;11070;51.336;12.340;2023-11-25T06:01:51;6.40;;;2.50;;
2061;SDS011;11070;51.336;12.340;2023-11-25T06:04:18;5.72;;;3.25;;
2061;SDS011;11070;51.336;12.340;2023-11-25T06:06:43;8.70;;;3.00;;
2061;SDS011;11070;51.336;12.340;2023-11-25T06:09:09;6.03;;;3.10;;
2061;SDS011;11070;51.336;12.340;2023-11-25T06:11:36;4.03;;;3.20;;
2061;SDS011;11070;51.336;12.340;2023-11-25T06:14:03;7.00;;;4.28;;
2061;SDS011;11070;51.336;12.340;2023-11-25T06:16:29;7.55;;;4.53;;
2061;SDS011;11070;51.336;12.340;2023-11-25T06:18:55;6.57;;;3.83;;
2061;SDS011;11070;51.336;12.340;2023-11-25T06:21:21;8.63;;;4.03;;
2061;SDS011;11070;51.336;12.340;2023-11-25T06:23:47;5.20;;;4.37;;
2061;SDS011;11070;51.336;12.340;2023-11-25T06:26:15;8.13;;;3.58;;
2061;SDS011;11070;51.336;12.340;2023-11-25T06:28:46;6.68;;;4.00;;
2061;SDS011;11070;51.336;12.340;2023-11-25T06:31:13;7.22;;;3.60;;
2061;SDS011;11070;51.336;12.340;2023-11-25T06:33:39;4.78;;;3.40;;
2061;SDS011;11070;51.336;12.340;2023-11-25T06:36:06;6.70;;;3.58;;
2061;SDS011;11070;51.336;12.340;2023-11-25T06:38:33;3.60;;;3.30;;
2061;SDS011;11070;51.336;12.340;2023-11-25T06:40:59;6.30;;;3.50;;
2061;SDS011;11070;51.336;12.340;2023-11-25T06:43:28;6.93;;;3.00;;
2061;SDS011;11070;51.336;12.340;2023-11-25T06:45:54;7.38;;;3.42;;
2061;SDS011;11070;51.336;12.340;2023-11-25T06:48:20;5.70;;;3.20;;
2061;SDS011;11070;51.336;12.340;2023-11-25T06:50:50;8.43;;;3.55;;
2061;SDS011;11070;51.336;12.340;2023-11-25T06:53:17;4.47;;;3.17;;
2061;SDS011;11070;51.336;12.340;2023-11-25T06:55:42;6.10;;;3.13;;
2061;SDS011;11070;51.336;12.340;2023-11-25T06:58:09;4.28;;;3.40;;
2061;SDS011;11070;51.336;12.340;2023-11-25T07:00:45;5.65;;;3.00;;
2061;SDS011;11070;51.336;12.340;2023-11-25T07:03:10;6.43;;;2.63;;
2061;SDS011;11070;51.336;12.340;2023-11-25T07:05:39;3.75;;;2.90;;
2061;SDS011;11070;51.336;12.340;2023-11-25T07:08:04;8.17;;;2.90;;
2061;SDS011;11070;51.336;12.340;2023-11-25T07:10:30;6.53;;;2.83;;
2061;SDS011;11070;51.336;12.340;2023-11-25T07:13:00;3.60;;;3.30;;
2061;SDS011;11070;51.336;12.340;2023-11-25T07:15:26;7.47;;;3.70;;
2061;SDS011;11070;51.336;12.340;2023-11-25T07:17:52;7.93;;;3.00;;
2061;SDS011;11070;51.336;12.340;2023-11-25T07:20:19;6.35;;;2.72;;
2061;SDS011;11070;51.336;12.340;2023-11-25T07:22:44;4.60;;;2.60;;
2061;SDS011;11070;51.336;12.340;2023-11-25T07:25:14;5.78;;;2.08;;
2061;SDS011;11070;51.336;12.340;2023-11-25T07:27:43;5.00;;;2.47;;
2061;SDS011;11070;51.336;12.340;2023-11-25T07:30:13;7.40;;;2.83;;
2061;SDS011;11070;51.336;12.340;2023-11-25T07:32:39;4.47;;;2.40;;
2061;SDS011;11070;51.336;12.340;2023-11-25T07:35:05;3.63;;;2.40;;
2061;SDS011;11070;51.336;12.340;2023-11-25T07:37:35;8.50;;;3.10;;
2061;SDS011;11070;51.336;12.340;2023-11-25T07:40:02;4.25;;;2.35;;
2061;SDS011;11070;51.336;12.340;2023-11-25T07:42:35;6.85;;;2.28;;
2061;SDS011;11070;51.336;12.340;2023-11-25T07:45:03;4.57;;;2.15;;
2061;SDS011;11070;51.336;12.340;2023-11-25T07:47:35;6.57;;;2.25;;
2061;SDS011;11070;51.336;12.340;2023-11-25T07:50:01;8.38;;;2.45;;
2061;SDS011;11070;51.336;12.340;2023-11-25T07:52:27;7.67;;;2.40;;
2061;SDS011;11070;51.336;12.340;2023-11-25T07:54:53;7.90;;;2.57;;
2061;SDS011;11070;51.336;12.340;2023-11-25T07:57:19;3.43;;;2.43;;
2061;SDS011;11070;51.336;12.340;2023-11-25T07:59:44;8.10;;;2.27;;
2061;SDS011;11070;51.336;12.340;2023-11-25T08:02:10;2.40;;;1.87;;
2061;SDS011;11070;51.336;12.340;2023-11-25T08:04:35;3.40;;;2.00;;
2061;SDS011;11070;51.336;12.340;2023-11-25T08:07:01;5.13;;;2.20;;
2061;SDS011;11070;51.336;12.340;2023-11-25T08:09:27;4.60;;;1.90;;
2061;SDS011;11070;51.336;12.340;2023-11-25T08:11:53;5.85;;;2.33;;
2061;SDS011;11070;51.336;12.340;2023-11-25T08:14:20;6.82;;;2.42;;
2061;SDS011;11070;51.336;12.340;2023-11-25T08:16:46;6.20;;;2.50;;
2061;SDS011;11070;51.336;12.340;2023-11-25T08:19:14;5.93;;;2.47;;
2061;SDS011;11070;51.336;12.340;2023-11-25T08:21:41;5.30;;;2.50;;
2061;SDS011;11070;51.336;12.340;2023-11-25T08:24:07;5.57;;;2.20;;
2061;SDS011;11070;51.336;12.340;2023-11-25T08:26:33;4.22;;;2.20;;
2061;SDS011;11070;51.336;12.340;2023-11-25T08:28:59;5.63;;;1.90;;
2061;SDS011;11070;51.336;12.340;2023-11-25T08:31:28;5.95;;;2.00;;
2061;SDS011;11070;51.336;12.340;2023-11-25T08:33:53;4.60;;;1.90;;
2061;SDS011;11070;51.336;12.340;2023-11-25T08:36:19;5.47;;;1.70;;
2061;SDS011;11070;51.336;12.340;2023-11-25T08:38:45;2.50;;;2.23;;
2061;SDS011;11070;51.336;12.340;2023-11-25T08:41:11;4.82;;;2.60;;
2061;SDS011;11070;51.336;12.340;2023-11-25T08:43:40;3.47;;;1.80;;
2061;SDS011;11070;51.336;12.340;2023-11-25T08:46:11;2.47;;;1.60;;
2061;SDS011;11070;51.336;12.340;2023-11-25T08:48:37;4.18;;;1.98;;
2061;SDS011;11070;51.336;12.340;2023-11-25T08:51:04;4.53;;;2.08;;
2061;SDS011;11070;51.336;12.340;2023-11-25T08:53:31;5.65;;;1.85;;
2061;SDS011;11070;51.336;12.340;2023-11-25T08:55:57;4.95;;;1.90;;
2061;SDS011;11070;51.336;12.340;2023-11-25T08:58:27;5.28;;;2.03;;
2061;SDS011;11070;51.336;12.340;2023-11-25T09:00:54;5.65;;;2.72;;
2061;SDS011;11070;51.336;12.340;2023-11-25T09:03:20;2.20;;;1.98;;
2061;SDS011;11070;51.336;12.340;2023-11-25T09:05:48;4.68;;;3.22;;
2061;SDS011;11070;51.336;12.340;2023-11-25T09:08:14;5.83;;;2.50;;
2061;SDS011;11070;51.336;12.340;2023-11-25T09:10:40;7.03;;;3.15;;
2061;SDS011;11070;51.336;12.340;2023-11-25T09:13:06;4.47;;;2.55;;
2061;SDS011;11070;51.336;12.340;2023-11-25T09:15:31;5.50;;;3.53;;
2061;SDS011;11070;51.336;12.340;2023-11-25T09:17:58;7.07;;;4.20;;
2061;SDS011;11070;51.336;12.340;2023-11-25T09:20:24;7.28;;;2.95;;
2061;SDS011;11070;51.336;12.340;2023-11-25T09:22:50;7.70;;;3.70;;
2061;SDS011;11070;51.336;12.340;2023-11-25T09:25:16;10.65;;;3.15;;
2061;SDS011;11070;51.336;12.340;2023-11-25T09:27:42;8.98;;;2.72;;
2061;SDS011;11070;51.336;12.340;2023-11-25T09:30:12;7.45;;;3.05;;
2061;SDS011;11070;51.336;12.340;2023-11-25T09:32:39;6.68;;;4.45;;
2061;SDS011;11070;51.336;12.340;2023-11-25T09:35:06;6.43;;;4.72;;
2061;SDS011;11070;51.336;12.340;2023-11-25T09:37:33;11.25;;;5.43;;
2061;SDS011;11070;51.336;12.340;2023-11-25T09:39:59;15.20;;;8.40;;
2061;SDS011;11070;51.336;12.340;2023-11-25T09:42:29;4.70;;;3.20;;
2061;SDS011;11070;51.336;12.340;2023-11-25T09:44:59;4.90;;;3.22;;
2061;SDS011;11070;51.336;12.340;2023-11-25T09:47:25;3.55;;;3.20;;
2061;SDS011;11070;51.336;12.340;2023-11-25T09:49:51;7.15;;;3.45;;
2061;SDS011;11070;51.336;12.340;2023-11-25T09:52:18;10.17;;;5.43;;
2061;SDS011;11070;51.336;12.340;2023-11-25T09:54:45;7.60;;;3.90;;
2061;SDS011;11070;51.336;12.340;2023-11-25T09:57:13;7.30;;;4.35;;
2061;SDS011;11070;51.336;12.340;2023-11-25T09:59:43;7.45;;;3.90;;
2061;SDS011;11070;51.336;12.340;2023-11-25T10:02:08;7.10;;;3.90;;
2061;SDS011;11070;51.336;12.340;2023-11-25T10:04:36;7.90;;;4.63;;
2061;SDS011;11070;51.336;12.340;2023-11-25T10:07:04;8.45;;;4.28;;
2061;SDS011;11070;51.336;12.340;2023-11-25T10:09:38;7.10;;;4.00;;
2061;SDS011;11070;51.336;12.340;2023-11-25T10:12:07;8.35;;;4.10;;
2061;SDS011;11070;51.336;12.340;2023-11-25T10:14:41;10.32;;;4.97;;
2061;SDS011;11070;51.336;12.340;2023-11-25T10:17:17;6.63;;;4.95;;
2061;SDS011;11070;51.336;12.340;2023-11-25T10:19:45;10.70;;;5.45;;
2061;SDS011;11070;51.336;12.340;2023-11-25T10:22:12;7.65;;;6.45;;
2061;SDS011;11070;51.336;12.340;2023-11-25T10:27:30;10.50;;;5.00;;
2061;SDS011;11070;51.336;12.340;2023-11-25T10:29:56;7.70;;;4.87;;
2061;SDS011;11070;51.336;12.340;2023-11-25T10:32:23;11.27;;;5.47;;
2061;SDS011;11070;51.336;12.340;2023-11-25T10:34:52;11.32;;;4.68;;
2061;SDS011;11070;51.336;12.340;2023-11-25T10:37:21;8.57;;;4.68;;
2061;SDS011;11070;51.336;12.340;2023-11-25T10:39:50;9.23;;;5.00;;
2061;SDS011;11070;51.336;12.340;2023-11-25T10:42:16;11.88;;;5.55;;
2061;SDS011;11070;51.336;12.340;2023-11-25T10:44:42;9.50;;;6.00;;
2061;SDS011;11070;51.336;12.340;2023-11-25T10:47:15;9.60;;;5.63;;
2061;SDS011;11070;51.336;12.340;2023-11-25T10:49:55;10.50;;;6.38;;
2061;SDS011;11070;51.336;12.340;2023-11-25T10:52:21;11.35;;;5.60;;
2061;SDS011;11070;51.336;12.340;2023-11-25T10:54:51;18.15;;;6.22;;
2061;SDS011;11070;51.336;12.340;2023-11-25T10:57:19;13.07;;;6.30;;
2061;SDS011;11070;51.336;12.340;2023-11-25T10:59:48;8.65;;;5.13;;
2061;SDS011;11070;51.336;12.340;2023-11-25T11:02:24;12.55;;;5.65;;
2061;SDS011;11070;51.336;12.340;2023-11-25T11:05:06;15.10;;;5.70;;
2061;SDS011;11070;51.336;12.340;2023-11-25T11:07:37;13.10;;;6.15;;
2061;SDS011;11070;51.336;12.340;2023-11-25T11:10:11;14.95;;;6.30;;
2061;SDS011;11070;51.336;12.340;2023-11-25T11:12:42;10.40;;;4.85;;
2061;SDS011;11070;51.336;12.340;2023-11-25T11:15:20;7.57;;;5.40;;
2061;SDS011;11070;51.336;12.340;2023-11-25T11:18:01;8.60;;;5.60;;
2061;SDS011;11070;51.336;12.340;2023-11-25T11:20:41;15.45;;;5.35;;
2061;SDS011;11070;51.336;12.340;2023-11-25T11:23:12;9.50;;;5.50;;
2061;SDS011;11070;51.336;12.340;2023-11-25T11:28:20;10.88;;;5.30;;
2061;SDS011;11070;51.336;12.340;2023-11-25T11:33:41;9.30;;;5.90;;
2061;SDS011;11070;51.336;12.340;2023-11-25T11:36:10;13.43;;;5.77;;
2061;SDS011;11070;51.336;12.340;2023-11-25T11:38:45;9.05;;;6.10;;
2061;SDS011;11070;51.336;12.340;2023-11-25T11:43:38;8.65;;;5.72;;
2061;SDS011;11070;51.336;12.340;2023-11-25T11:46:04;16.90;;;6.83;;
2061;SDS011;11070;51.336;12.340;2023-11-25T11:48:30;8.63;;;5.95;;
2061;SDS011;11070;51.336;12.340;2023-11-25T11:50:56;13.00;;;7.03;;
2061;SDS011;11070;51.336;12.340;2023-11-25T11:53:23;9.98;;;6.88;;
2061;SDS011;11070;51.336;12.340;2023-11-25T11:55:56;11.93;;;6.80;;
2061;SDS011;11070;51.336;12.340;2023-11-25T11:58:25;14.70;;;7.65;;
2061;SDS011;11070;51.336;12.340;2023-11-25T12:03:28;14.80;;;7.75;;
2061;SDS011;11070;51.336;12.340;2023-11-25T12:05:55;11.85;;;7.68;;
2061;SDS011;11070;51.336;12.340;2023-11-25T12:08:21;14.57;;;7.88;;
2061;SDS011;11070;51.336;12.340;2023-11-25T12:10:48;13.98;;;7.50;;
2061;SDS011;11070;51.336;12.340;2023-11-25T12:13:30;10.05;;;5.90;;
2061;SDS011;11070;51.336;12.340;2023-11-25T12:15:58;8.43;;;5.50;;
2061;SDS011;11070;51.336;12.340;2023-11-25T12:18:25;13.43;;;6.50;;
2061;SDS011;11070;51.336;12.340;2023-11-25T12:20:51;11.13;;;6.32;;
2061;SDS011;11070;51.336;12.340;2023-11-25T12:23:17;10.33;;;5.27;;
2061;SDS011;11070;51.336;12.340;2023-11-25T12:25:43;8.13;;;5.43;;
2061;SDS011;11070;51.336;12.340;2023-11-25T12:28:10;11.98;;;7.00;;
2061;SDS011;11070;51.336;12.340;2023-11-25T12:30:38;9.10;;;6.15;;
2061;SDS011;11070;51.336;12.340;2023-11-25T12:33:05;8.75;;;6.72;;
2061;SDS011;11070;51.336;12.340;2023-11-25T12:35:34;10.55;;;6.28;;
2061;SDS011;11070;51.336;12.340;2023-11-25T12:38:00;14.65;;;6.95;;
2061;SDS011;11070;51.336;12.340;2023-11-25T12:40:27;10.63;;;7.05;;
2061;SDS011;11070;51.336;12.340;2023-11-25T12:42:53;10.90;;;6.85;;
2061;SDS011;11070;51.336;12.340;2023-11-25T12:48:07;11.40;;;8.57;;
2061;SDS011;11070;51.336;12.340;2023-11-25T12:51:20;12.48;;;7.90;;
2061;SDS011;11070;51.336;12.340;2023-11-25T12:53:31;11.07;;;6.15;;
2061;SDS011;11070;51.336;12.340;2023-11-25T12:55:57;8.20;;;6.60;;
2061;SDS011;11070;51.336;12.340;2023-11-25T12:58:24;10.77;;;7.47;;
2061;SDS011;11070;51.336;12.340;2023-11-25T13:00:51;12.57;;;8.13;;
2061;SDS011;11070;51.336;12.340;2023-11-25T13:03:30;14.68;;;8.70;;
2061;SDS011;11070;51.336;12.340;2023-11-25T13:06:03;10.85;;;9.07;;
2061;SDS011;11070;51.336;12.340;2023-11-25T13:08:31;9.98;;;8.18;;
2061;SDS011;11070;51.336;12.340;2023-11-25T13:11:01;12.13;;;8.00;;
2061;SDS011;11070;51.336;12.340;2023-11-25T13:13:34;12.88;;;9.57;;
2061;SDS011;11070;51.336;12.340;2023-11-25T13:16:01;11.70;;;8.35;;
2061;SDS011;11070;51.336;12.340;2023-11-25T13:18:29;15.35;;;8.43;;
2061;SDS011;11070;51.336;12.340;2023-11-25T13:20:55;11.05;;;6.93;;
2061;SDS011;11070;51.336;12.340;2023-11-25T13:23:21;10.77;;;7.45;;
2061;SDS011;11070;51.336;12.340;2023-11-25T13:25:47;12.05;;;8.50;;
2061;SDS011;11070;51.336;12.340;2023-11-25T13:28:14;12.18;;;8.25;;
2061;SDS011;11070;51.336;12.340;2023-11-25T13:30:40;16.30;;;7.97;;
2061;SDS011;11070;51.336;12.340;2023-11-25T13:33:07;9.02;;;6.75;;
2061;SDS011;11070;51.336;12.340;2023-11-25T13:35:34;7.53;;;6.60;;
2061;SDS011;11070;51.336;12.340;2023-11-25T13:38:04;8.35;;;6.90;;
2061;SDS011;11070;51.336;12.340;2023-11-25T13:40:31;6.90;;;6.20;;
2061;SDS011;11070;51.336;12.340;2023-11-25T13:43:03;16.95;;;8.70;;
2061;SDS011;11070;51.336;12.340;2023-11-25T13:45:30;11.43;;;8.50;;
2061;SDS011;11070;51.336;12.340;2023-11-25T13:47:56;9.60;;;7.82;;
2061;SDS011;11070;51.336;12.340;2023-11-25T13:50:26;19.73;;;12.90;;
2061;SDS011;11070;51.336;12.340;2023-11-25T13:52:52;19.02;;;11.85;;
2061;SDS011;11070;51.336;12.340;2023-11-25T13:55:19;14.40;;;10.07;;
2061;SDS011;11070;51.336;12.340;2023-11-25T13:57:48;13.90;;;8.80;;
2061;SDS011;11070;51.336;12.340;2023-11-25T14:00:15;43.53;;;24.73;;
2061;SDS011;11070;51.336;12.340;2023-11-25T14:02:43;17.83;;;11.90;;
2061;SDS011;11070;51.336;12.340;2023-11-25T14:05:13;13.93;;;10.48;;
2061;SDS011;11070;51.336;12.340;2023-11-25T14:07:42;15.15;;;12.07;;
2061;SDS011;11070;51.336;12.340;2023-11-25T14:10:08;7.63;;;5.82;;
2061;SDS011;11070;51.336;12.340;2023-11-25T14:12:35;10.68;;;6.90;;
2061;SDS011;11070;51.336;12.340;2023-11-25T14:15:04;9.30;;;7.20;;
2061;SDS011;11070;51.336;12.340;2023-11-25T14:17:34;9.50;;;7.55;;
2061;SDS011;11070;51.336;12.340;2023-11-25T14:20:02;11.95;;;7.80;;
2061;SDS011;11070;51.336;12.340;2023-11-25T14:22:39;7.20;;;6.50;;
2061;SDS011;11070;51.336;12.340;2023-11-25T14:25:05;11.60;;;8.00;;
2061;SDS011;11070;51.336;12.340;2023-11-25T14:27:33;8.18;;;6.60;;
2061;SDS011;11070;51.336;12.340;2023-11-25T14:29:59;8.47;;;7.03;;
2061;SDS011;11070;51.336;12.340;2023-11-25T14:32:24;8.13;;;7.00;;
2061;SDS011;11070;51.336;12.340;2023-11-25T14:34:50;8.03;;;6.90;;
2061;SDS011;11070;51.336;12.340;2023-11-25T14:37:16;10.50;;;5.53;;
2061;SDS011;11070;51.336;12.340;2023-11-25T14:39:41;8.47;;;6.97;;
2061;SDS011;11070;51.336;12.340;2023-11-25T14:42:07;8.33;;;6.83;;
2061;SDS011;11070;51.336;12.340;2023-11-25T14:44:34;7.72;;;6.93;;
2061;SDS011;11070;51.336;12.340;2023-11-25T14:46:59;10.55;;;7.63;;
2061;SDS011;11070;51.336;12.340;2023-11-25T14:49:25;8.83;;;7.20;;
2061;SDS011;11070;51.336;12.340;2023-11-25T14:51:51;11.30;;;8.17;;
2061;SDS011;11070;51.336;12.340;2023-11-25T14:54:17;10.43;;;7.95;;
2061;SDS011;11070;51.336;12.340;2023-11-25T14:56:43;12.10;;;7.90;;
2061;SDS011;11070;51.336;12.340;2023-11-25T14:59:10;10.35;;;7.70;;
2061;SDS011;11070;51.336;12.340;2023-11-25T15:01:37;9.70;;;6.78;;